Latest Weather Observations for Coldstream

IDV60801

Issued at 11:32 pm EST Friday 29 July 2016 (issued every 30 minutes, with the page automatically refreshed every 10 minutes)

About weather observations | Map of weather stations | Latest weather observations for VIC | Other Formats
Station Details ID: 086383 Name: COLDSTREAM Lat: -37.72 Lon: 145.41 Height: 83.0 m
Data from the previous 72 hours. | See also: Recent months at Coldstream
Date/Time
EST
Temp
°C
App
Temp
°C
Dew
Point
°C
Rel
Hum
%
Delta-T
°C
Wind Press
QNH
hPa
Press
MSL
hPa
Rain since
9am
mm
Dir  Spd
km/h
Gust
km/h
Spd
kts
Gust
kts
29/11:30pm 5.2 4.1 5.1 99 0.0 CALM 0 0 0 0 1022.3 1022.5 2.4
29/11:00pm 4.7 3.5 4.6 99 0.0 CALM 0 0 0 0 1022.3 1022.5 2.4
29/10:30pm 4.6 3.4 4.5 99 0.0 CALM 0 0 0 0 1022.3 1022.5 2.4
29/10:00pm 5.4 4.3 5.1 98 0.1 CALM 0 0 0 0 1022.1 1022.3 2.4
29/09:30pm 6.3 5.4 6.0 98 0.1 CALM 0 0 0 0 1022.2 1022.4 2.4
29/09:00pm 6.5 5.6 6.1 97 0.2 CALM 0 0 0 0 1022.1 1022.3 2.4
29/08:30pm 7.6 7.0 7.2 97 0.2 CALM 0 0 0 0 1022.1 1022.3 2.4
29/08:00pm 9.2 8.9 8.7 97 0.2 CALM 0 0 0 0 1022.0 1022.2 2.4
29/07:30pm 10.5 9.5 10.2 98 0.2 NNE 6 11 3 6 1021.7 1021.9 2.4
29/07:00pm 10.6 9.4 10.4 99 0.1 NNE 7 9 4 5 1021.5 1021.7 2.4
29/06:30pm 10.5 9.3 10.2 98 0.2 NNE 7 11 4 6 1021.1 1021.3 2.4
29/06:00pm 10.8 9.6 10.3 97 0.3 N 7 13 4 7 1021.0 1021.2 2.4
29/05:30pm 11.0 11.1 10.2 95 0.4 CALM 0 6 0 3 1020.7 1020.9 2.0
29/05:00pm 11.4 8.9 9.8 90 0.8 W 13 17 7 9 1020.7 1020.9 1.4
29/04:30pm 11.6 9.0 9.5 87 1.1 NNW 13 22 7 12 1020.1 1020.3 0.2
29/04:00pm 12.2 9.5 9.0 81 1.6 N 13 19 7 10 1019.7 1019.9 0.0
29/03:30pm 12.2 10.0 9.2 82 1.5 N 11 19 6 10 1019.8 1020.0 0.0
29/03:00pm 12.7 10.0 8.8 77 2.0 NW 13 20 7 11 1020.0 1020.2 0.0
29/02:30pm 12.5 9.0 8.6 77 1.9 WNW 17 30 9 16 1020.0 1020.2 0.0
29/02:00pm 13.2 9.5 8.1 71 2.5 NW 17 30 9 16 1019.9 1020.1 0.0
29/01:30pm 12.9 10.2 9.0 77 2.0 NNW 13 20 7 11 1020.1 1020.3 0.0
29/01:00pm 12.5 9.0 8.8 78 1.9 N 17 24 9 13 1020.3 1020.5 0.0
29/12:30pm 12.3 8.7 8.4 77 1.9 N 17 26 9 14 1020.5 1020.7 0.0
29/12:00pm 12.2 8.6 8.3 77 1.9 N 17 26 9 14 1020.8 1021.0 0.0
29/11:30am 12.4 7.8 8.1 75 2.1 N 22 35 12 19 1020.9 1021.1 0.0
29/11:00am 12.1 8.5 8.2 77 1.9 N 17 32 9 17 1021.4 1021.6 0.0
29/10:30am 11.7 7.9 7.6 76 2.0 N 17 28 9 15 1021.6 1021.8 0.0
29/10:00am 11.4 7.1 7.7 78 1.8 N 20 32 11 17 1021.8 1022.0 0.0
29/09:30am 11.0 6.8 7.5 79 1.7 N 19 30 10 16 1022.1 1022.3 0.0
29/09:00am 10.9 7.1 7.4 79 1.7 N 17 30 9 16 1021.8 1022.0 0.0
29/08:30am 10.8 7.3 7.3 79 1.7 N 15 24 8 13 1021.7 1021.9 0.0
29/08:00am 10.9 6.6 7.2 78 1.8 NNW 19 35 10 19 1021.6 1021.8 0.0
29/07:30am 10.7 7.1 6.8 77 1.9 NNW 15 24 8 13 1021.3 1021.5 0.0
29/07:00am 10.8 7.6 6.7 76 1.9 N 13 24 7 13 1021.2 1021.4 0.0
29/06:30am 10.8 6.9 6.9 77 1.9 N 17 30 9 16 1021.2 1021.4 0.0
29/06:00am 10.5 7.3 7.0 79 1.7 N 13 22 7 12 1021.3 1021.5 0.0
29/05:30am 10.7 6.4 6.8 77 1.9 N 19 30 10 16 1021.4 1021.6 0.0
29/05:00am 10.7 6.8 7.0 78 1.8 N 17 26 9 14 1021.4 1021.6 0.0
29/04:30am 10.7 7.1 6.8 77 1.9 N 15 20 8 11 1021.4 1021.6 0.0
29/04:00am 10.6 7.0 6.9 78 1.8 N 15 22 8 12 1021.2 1021.4 0.0
29/03:30am 10.6 6.6 6.7 77 1.8 N 17 28 9 15 1021.4 1021.6 0.0
29/03:00am 10.5 6.9 6.8 78 1.7 NNW 15 22 8 12 1021.9 1022.1 0.0
29/02:30am 10.2 7.4 6.9 80 1.6 N 11 20 6 11 1022.1 1022.3 0.0
29/02:00am 10.6 7.5 7.3 80 1.6 N 13 20 7 11 1022.1 1022.3 0.0
29/01:30am 10.5 6.6 7.2 80 1.6 N 17 26 9 14 1022.1 1022.3 0.0
29/01:00am 10.8 7.3 7.1 78 1.8 N 15 24 8 13 1022.4 1022.6 0.0
29/12:30am 10.6 7.1 7.3 80 1.6 N 15 20 8 11 1022.4 1022.6 0.0
29/12:00am 10.2 6.7 7.3 82 1.4 N 15 22 8 12 1022.8 1023.0 0.0
 
Date/Time
EST
Temp
°C
App
Temp
°C
Dew
Point
°C
Rel
Hum
%
Delta-T
°C
Wind Press
QNH
hPa
Press
MSL
hPa
Rain since
9am
mm
Dir  Spd
km/h
Gust
km/h
Spd
kts
Gust
kts
28/11:30pm 10.3 6.4 7.2 81 1.5 N 17 22 9 12 1023.0 1023.2 0.0
28/11:00pm 10.5 6.6 7.2 80 1.6 N 17 24 9 13 1023.3 1023.5 0.0
28/10:30pm 10.7 6.8 7.2 79 1.7 N 17 26 9 14 1023.3 1023.5 0.0
28/10:00pm 10.8 7.7 7.1 78 1.8 N 13 24 7 13 1023.3 1023.5 0.0
28/09:30pm 10.9 6.0 7.0 77 1.9 N 22 35 12 19 1023.3 1023.5 0.0
28/09:00pm 10.9 6.0 7.0 77 1.9 N 22 35 12 19 1023.4 1023.6 0.0
28/08:30pm 10.9 5.6 7.0 77 1.9 N 24 35 13 19 1023.5 1023.7 0.0
28/08:00pm 11.0 6.6 6.7 75 2.0 N 19 30 10 16 1023.7 1023.9 0.0
28/07:30pm 11.1 6.7 6.6 74 2.1 N 19 26 10 14 1023.7 1023.9 0.0
28/07:00pm 10.7 7.5 7.0 78 1.8 N 13 20 7 11 1023.8 1024.0 0.0
28/06:30pm 10.5 6.2 7.0 79 1.7 N 19 30 10 16 1023.5 1023.7 0.0
28/06:00pm 10.9 6.9 6.8 76 1.9 N 17 28 9 15 1023.2 1023.4 0.0
28/05:30pm 10.9 6.6 7.0 77 1.9 N 19 33 10 18 1023.1 1023.3 0.0
28/05:00pm 11.1 6.6 7.0 76 2.0 N 20 28 11 15 1023.0 1023.2 0.0
28/04:30pm 11.2 6.7 7.1 76 2.0 N 20 32 11 17 1022.9 1023.1 0.0
28/04:00pm 11.2 6.8 7.3 77 1.9 N 20 33 11 18 1022.9 1023.1 0.0
28/03:30pm 11.2 6.0 7.1 76 2.0 N 24 37 13 20 1022.9 1023.1 0.0
28/03:00pm 11.4 6.5 6.7 73 2.2 N 22 33 12 18 1022.8 1023.0 0.0
28/02:30pm 11.5 7.2 7.0 74 2.2 N 19 33 10 18 1022.8 1023.0 0.0
28/02:00pm 11.4 7.5 6.9 74 2.1 N 17 28 9 15 1023.0 1023.2 0.0
28/01:30pm 11.4 7.5 7.1 75 2.1 NNW 17 30 9 16 1023.2 1023.4 0.0
28/01:00pm 11.4 6.8 6.7 73 2.2 N 20 32 11 17 1023.3 1023.5 0.0
28/12:30pm 11.7 7.4 6.8 72 2.3 N 19 28 10 15 1023.5 1023.7 0.0
28/12:00pm 11.9 8.0 7.0 72 2.3 N 17 24 9 13 1023.7 1023.9 0.0
28/11:30am 11.8 7.8 6.7 71 2.4 N 17 28 9 15 1024.1 1024.3 0.0
28/11:00am 11.4 8.3 7.1 75 2.1 N 13 20 7 11 1024.4 1024.6 0.0
28/10:30am 11.1 7.8 6.6 74 2.1 N 13 19 7 10 1024.6 1024.8 0.0
28/10:00am 11.0 8.1 6.6 74 2.1 N 11 17 6 9 1024.4 1024.6 0.0
28/09:30am 10.0 6.3 6.2 77 1.8 N 15 24 8 13 1024.4 1024.6 0.0
28/09:00am 9.6 6.6 5.8 77 1.7 N 11 19 6 10 1024.3 1024.5 1.8
28/08:30am 9.0 6.3 5.6 79 1.5 N 9 15 5 8 1024.3 1024.5 1.8
28/08:00am 8.8 5.7 5.4 79 1.5 N 11 20 6 11 1024.0 1024.2 1.8
28/07:30am 8.6 5.1 5.4 80 1.4 N 13 22 7 12 1023.8 1024.0 1.8
28/07:00am 8.4 5.2 5.3 81 1.4 N 11 19 6 10 1023.6 1023.8 1.8
28/06:30am 8.5 5.8 5.4 81 1.4 N 9 15 5 8 1023.4 1023.6 1.8
28/06:00am 8.5 5.8 5.4 81 1.4 N 9 15 5 8 1023.2 1023.4 1.8
28/05:30am 8.1 6.0 5.6 84 1.1 N 6 7 3 4 1022.9 1023.1 1.8
28/05:00am 8.2 6.0 5.3 82 1.3 NNW 6 9 3 5 1022.5 1022.7 1.8
28/04:30am 8.4 5.7 5.5 82 1.3 N 9 11 5 6 1022.5 1022.7 1.8
28/04:00am 8.5 6.1 5.4 81 1.4 N 7 9 4 5 1022.3 1022.5 1.8
28/03:30am 8.7 6.4 5.6 81 1.4 N 7 9 4 5 1022.4 1022.6 1.8
28/03:00am 8.9 6.6 5.5 79 1.5 N 7 11 4 6 1022.5 1022.7 1.8
28/02:30am 9.1 6.8 5.5 78 1.6 N 7 11 4 6 1022.7 1022.9 1.8
28/02:00am 8.9 7.1 5.3 78 1.6 N 4 11 2 6 1022.7 1022.9 1.8
28/01:30am 9.0 6.7 5.0 76 1.8 N 6 9 3 5 1022.5 1022.7 1.8
28/01:00am 9.3 6.4 4.9 74 2.0 NNW 9 13 5 7 1022.4 1022.6 1.8
28/12:30am 9.3 6.8 4.7 73 2.1 NNW 7 15 4 8 1022.4 1022.6 1.8
28/12:00am 9.0 6.6 5.2 77 1.7 NNW 7 13 4 7 1022.4 1022.6 1.8
 
Date/Time
EST
Temp
°C
App
Temp
°C
Dew
Point
°C
Rel
Hum
%
Delta-T
°C
Wind Press
QNH
hPa
Press
MSL
hPa
Rain since
9am
mm
Dir  Spd
km/h
Gust
km/h
Spd
kts
Gust
kts
27/11:30pm 9.0 6.7 5.0 76 1.8 NNW 6 9 3 5 1022.5 1022.7 1.8
27/11:00pm 9.1 6.3 5.1 76 1.8 NNW 9 15 5 8 1022.4 1022.6 1.8
27/10:30pm 8.7 6.3 5.1 78 1.6 NNW 7 11 4 6 1022.2 1022.4 1.8
27/10:00pm 8.9 6.1 5.1 77 1.7 NNW 9 13 5 7 1022.2 1022.4 1.8
27/09:30pm 9.1 6.3 5.1 76 1.8 NW 9 13 5 7 1022.3 1022.5 1.8
27/09:00pm 9.3 6.5 5.1 75 1.9 NW 9 19 5 10 1022.5 1022.7 1.8
27/08:30pm 8.9 6.1 5.3 78 1.6 NNW 9 13 5 7 1022.3 1022.5 1.8
27/08:00pm 9.0 6.2 5.2 77 1.7 NNW 9 15 5 8 1022.1 1022.3 1.8
27/07:30pm 8.8 6.6 5.2 78 1.6 NW 6 9 3 5 1021.8 1022.0 1.8
27/07:00pm 8.6 6.4 5.2 79 1.5 NNW 6 9 3 5 1021.2 1021.4 1.8
27/06:30pm 9.0 6.1 4.4 73 2.0 NW 9 13 5 7 1020.5 1020.7 1.8
27/06:00pm 9.2 5.8 4.2 71 2.2 WNW 11 17 6 9 1020.0 1020.2 1.8
27/05:30pm 9.4 5.0 4.8 73 2.1 W 17 32 9 17 1019.7 1019.9 1.8
27/05:00pm 9.5 6.7 5.1 74 2.0 W 9 13 5 7 1019.3 1019.5 1.8
27/04:30pm 10.3 5.7 3.6 63 2.9 W 17 28 9 15 1018.9 1019.1 1.8
27/04:00pm 10.6 6.8 3.9 63 3.0 W 13 19 7 10 1018.5 1018.7 1.8
27/03:30pm 10.7 6.5 3.7 62 3.1 W 15 26 8 14 1018.0 1018.2 1.8
27/03:00pm 10.5 6.4 4.6 67 2.7 W 15 22 8 12 1017.4 1017.5 1.8
27/02:30pm 10.6 6.4 5.6 71 2.3 WSW 17 22 9 12 1016.8 1016.9 1.8
27/02:00pm 9.8 7.0 6.9 82 1.4 SW 11 20 6 11 1016.8 1016.9 1.8
27/01:30pm 10.0 6.7 6.2 77 1.8 SW 13 24 7 13 1016.4 1016.5 1.8
27/01:00pm 11.5 5.8 4.9 64 3.0 WSW 24 33 13 18 1015.9 1016.0 1.8
27/12:30pm 11.9 7.3 6.4 69 2.6 WSW 20 28 11 15 1015.6 1015.7 1.8
27/12:00pm 10.6 5.9 7.7 82 1.4 W 22 30 12 16 1015.8 1015.9 1.8
27/11:30am 10.4 7.6 8.5 88 0.9 WSW 13 17 7 9 1015.3 1015.4 1.8
27/11:00am 9.4 6.7 7.5 88 0.9 SSW 11 19 6 10 1015.2 1015.3 1.8
27/10:30am 9.7 6.5 8.3 91 0.7 SW 15 24 8 13 1014.8 1014.9 1.2
27/10:00am 9.4 5.9 8.6 95 0.4 WSW 17 24 9 13 1014.4 1014.5 1.2
27/09:30am 9.2 6.1 8.9 98 0.1 WSW 15 26 8 14 1013.3 1013.5 1.0
27/09:00am 8.9 6.0 8.3 96 0.3 W 13 24 7 13 1012.4 1012.6 1.4
27/08:30am 8.7 6.8 7.6 93 0.5 NW 7 15 4 8 1011.6 1011.8 0.8
27/08:00am 8.3 6.4 7.4 94 0.4 N 7 13 4 7 1011.0 1011.2 0.2
27/07:30am 8.0 6.3 7.4 96 0.3 NE 6 11 3 6 1010.4 1010.6 0.2
27/07:00am 8.0 5.6 7.1 94 0.4 N 9 13 5 7 1009.7 1009.9 0.0
27/06:30am 8.2 6.1 6.7 90 0.7 N 7 15 4 8 1009.2 1009.4 0.0
27/06:00am 8.6 6.3 5.9 83 1.2 N 7 11 4 6 1008.5 1008.7 0.0
27/05:30am 8.9 5.9 5.8 81 1.4 NNW 11 20 6 11 1008.0 1008.1 0.0
27/05:00am 8.4 5.8 6.0 85 1.1 NW 9 17 5 9 1007.4 1007.5 0.0
27/04:30am 8.4 4.6 5.9 84 1.1 N 15 22 8 12 1006.8 1006.9 0.0
27/04:00am 8.3 4.1 5.6 83 1.2 N 17 24 9 13 1006.6 1006.7 0.0
27/03:30am 8.3 4.1 5.6 83 1.2 NNW 17 28 9 15 1006.3 1006.4 0.0
27/03:00am 8.0 4.1 5.3 83 1.2 N 15 22 8 12 1006.3 1006.4 0.0
27/02:30am 7.8 3.5 5.4 85 1.1 N 17 24 9 13 1006.1 1006.2 0.0
27/02:00am 8.2 3.5 5.3 82 1.3 N 19 30 10 16 1006.3 1006.4 0.0
27/01:30am 8.4 3.7 5.2 80 1.4 N 19 30 10 16 1006.5 1006.6 0.0
27/01:00am 8.3 3.4 4.9 79 1.5 N 20 32 11 17 1006.6 1006.7 0.0
27/12:30am 8.9 4.0 4.3 73 2.0 N 19 30 10 16 1006.9 1007.0 0.0
27/12:00am 8.8 4.0 4.4 74 2.0 N 19 30 10 16 1006.7 1006.8 0.0

Other Formats:

Comma delimited format used in spreadsheet applications
http://www.bom.gov.au/fwo/IDV60801/IDV60801.94864.axf

JavaScript Object Notation format (JSON) in row-major order
http://www.bom.gov.au/fwo/IDV60801/IDV60801.94864.json